sensor_id;sensor_type;location;lat;lon;timestamp;temperature;humidity
21815;DHT22;11069;48.988;8.450;2022-12-18T00:02:14;-9.50;99.90
21815;DHT22;11069;48.988;8.450;2022-12-18T00:04:39;-9.50;99.90
21815;DHT22;11069;48.988;8.450;2022-12-18T00:07:08;-9.60;99.90
21815;DHT22;11069;48.988;8.450;2022-12-18T00:09:34;-9.70;99.90
21815;DHT22;11069;48.988;8.450;2022-12-18T00:12:02;-9.60;99.90
21815;DHT22;11069;48.988;8.450;2022-12-18T00:14:27;-9.60;99.90
21815;DHT22;11069;48.988;8.450;2022-12-18T00:16:53;-9.70;99.90
21815;DHT22;11069;48.988;8.450;2022-12-18T00:19:19;-9.70;99.90
21815;DHT22;11069;48.988;8.450;2022-12-18T00:21:44;-9.60;99.90
21815;DHT22;11069;48.988;8.450;2022-12-18T00:24:10;-9.70;99.90
21815;DHT22;11069;48.988;8.450;2022-12-18T00:26:37;-9.80;99.90
21815;DHT22;11069;48.988;8.450;2022-12-18T00:29:06;-9.80;99.90
21815;DHT22;11069;48.988;8.450;2022-12-18T00:31:32;-9.70;99.90
21815;DHT22;11069;48.988;8.450;2022-12-18T00:33:58;-9.60;99.90
21815;DHT22;11069;48.988;8.450;2022-12-18T00:36:27;-9.70;99.90
21815;DHT22;11069;48.988;8.450;2022-12-18T00:38:54;-9.70;99.90
21815;DHT22;11069;48.988;8.450;2022-12-18T00:41:20;-9.70;99.90
21815;DHT22;11069;48.988;8.450;2022-12-18T00:44:06;-9.60;99.90
21815;DHT22;11069;48.988;8.450;2022-12-18T00:46:32;-9.70;99.90
21815;DHT22;11069;48.988;8.450;2022-12-18T00:48:58;-9.80;99.90
21815;DHT22;11069;48.988;8.450;2022-12-18T00:51:24;-9.80;99.90
21815;DHT22;11069;48.988;8.450;2022-12-18T00:53:50;-9.90;99.90
21815;DHT22;11069;48.988;8.450;2022-12-18T00:56:16;-9.90;99.90
21815;DHT22;11069;48.988;8.450;2022-12-18T00:58:41;-9.70;99.90
21815;DHT22;11069;48.988;8.450;2022-12-18T01:01:07;-9.70;99.90
21815;DHT22;11069;48.988;8.450;2022-12-18T01:03:33;-9.60;99.90
21815;DHT22;11069;48.988;8.450;2022-12-18T01:05:59;-9.60;99.90
21815;DHT22;11069;48.988;8.450;2022-12-18T01:08:25;-9.50;99.90
21815;DHT22;11069;48.988;8.450;2022-12-18T01:10:50;-9.50;99.90
21815;DHT22;11069;48.988;8.450;2022-12-18T01:13:16;-9.50;99.90
21815;DHT22;11069;48.988;8.450;2022-12-18T01:15:50;-9.50;99.90
21815;DHT22;11069;48.988;8.450;2022-12-18T01:18:16;-9.40;99.90
21815;DHT22;11069;48.988;8.450;2022-12-18T01:20:42;-9.40;99.90
21815;DHT22;11069;48.988;8.450;2022-12-18T01:23:08;-9.40;99.90
21815;DHT22;11069;48.988;8.450;2022-12-18T01:25:35;-9.50;99.90
21815;DHT22;11069;48.988;8.450;2022-12-18T01:28:04;-9.50;99.90
21815;DHT22;11069;48.988;8.450;2022-12-18T01:30:29;-9.50;99.90
21815;DHT22;11069;48.988;8.450;2022-12-18T01:32:55;-9.40;99.90
21815;DHT22;11069;48.988;8.450;2022-12-18T01:35:21;-9.30;99.90
21815;DHT22;11069;48.988;8.450;2022-12-18T01:37:46;-9.20;99.90
21815;DHT22;11069;48.988;8.450;2022-12-18T01:40:12;-9.20;99.90
21815;DHT22;11069;48.988;8.450;2022-12-18T01:42:37;-9.30;99.90
21815;DHT22;11069;48.988;8.450;2022-12-18T01:50:35;-9.30;99.90
21815;DHT22;11069;48.988;8.450;2022-12-18T01:53:28;-9.40;99.90
21815;DHT22;11069;48.988;8.450;2022-12-18T01:55:55;-9.40;99.90
21815;DHT22;11069;48.988;8.450;2022-12-18T01:58:38;-9.40;99.90
21815;DHT22;11069;48.988;8.450;2022-12-18T02:01:04;-9.40;99.90
21815;DHT22;11069;48.988;8.450;2022-12-18T02:03:30;-9.30;99.90
21815;DHT22;11069;48.988;8.450;2022-12-18T02:13:41;-9.20;99.90
21815;DHT22;11069;48.988;8.450;2022-12-18T02:16:29;-9.20;99.90
21815;DHT22;11069;48.988;8.450;2022-12-18T02:19:00;-9.20;99.90
21815;DHT22;11069;48.988;8.450;2022-12-18T02:21:30;-9.30;99.90
21815;DHT22;11069;48.988;8.450;2022-12-18T02:24:28;-9.30;99.90
21815;DHT22;11069;48.988;8.450;2022-12-18T02:27:07;-9.40;99.90
21815;DHT22;11069;48.988;8.450;2022-12-18T02:29:46;-9.40;99.90
21815;DHT22;11069;48.988;8.450;2022-12-18T02:32:22;-9.30;99.90
21815;DHT22;11069;48.988;8.450;2022-12-18T02:34:50;-9.30;99.90
21815;DHT22;11069;48.988;8.450;2022-12-18T02:37:18;-9.30;99.90
21815;DHT22;11069;48.988;8.450;2022-12-18T02:39:46;-9.10;99.90
21815;DHT22;11069;48.988;8.450;2022-12-18T02:42:13;-9.00;99.90
21815;DHT22;11069;48.988;8.450;2022-12-18T02:44:43;-8.90;99.90
21815;DHT22;11069;48.988;8.450;2022-12-18T02:47:11;-8.80;99.90
21815;DHT22;11069;48.988;8.450;2022-12-18T02:52:23;-8.90;99.90
21815;DHT22;11069;48.988;8.450;2022-12-18T02:57:35;-8.90;99.90
21815;DHT22;11069;48.988;8.450;2022-12-18T03:00:06;-8.80;99.90
21815;DHT22;11069;48.988;8.450;2022-12-18T03:02:54;-8.70;99.90
21815;DHT22;11069;48.988;8.450;2022-12-18T03:05:34;-8.60;99.90
21815;DHT22;11069;48.988;8.450;2022-12-18T03:08:14;-8.60;99.90
21815;DHT22;11069;48.988;8.450;2022-12-18T03:10:51;-8.60;99.90
21815;DHT22;11069;48.988;8.450;2022-12-18T03:16:19;-8.50;99.90
21815;DHT22;11069;48.988;8.450;2022-12-18T03:18:49;-8.50;99.90
21815;DHT22;11069;48.988;8.450;2022-12-18T03:21:21;-8.50;99.90
21815;DHT22;11069;48.988;8.450;2022-12-18T03:23:49;-8.50;99.90
21815;DHT22;11069;48.988;8.450;2022-12-18T03:26:20;-8.50;99.90
21815;DHT22;11069;48.988;8.450;2022-12-18T03:28:52;-8.40;99.90
21815;DHT22;11069;48.988;8.450;2022-12-18T03:31:21;-8.50;99.90
21815;DHT22;11069;48.988;8.450;2022-12-18T03:33:54;-8.50;99.90
21815;DHT22;11069;48.988;8.450;2022-12-18T03:36:20;-8.50;99.90
21815;DHT22;11069;48.988;8.450;2022-12-18T03:38:45;-8.50;99.90
21815;DHT22;11069;48.988;8.450;2022-12-18T03:52:28;-8.60;99.90
21815;DHT22;11069;48.988;8.450;2022-12-18T03:54:57;-8.60;99.90
21815;DHT22;11069;48.988;8.450;2022-12-18T03:57:26;-8.50;99.90
21815;DHT22;11069;48.988;8.450;2022-12-18T04:00:00;-8.50;99.90
21815;DHT22;11069;48.988;8.450;2022-12-18T04:02:28;-8.40;99.90
21815;DHT22;11069;48.988;8.450;2022-12-18T04:04:58;-8.40;99.90
21815;DHT22;11069;48.988;8.450;2022-12-18T04:07:25;-8.30;99.90
21815;DHT22;11069;48.988;8.450;2022-12-18T04:09:54;-8.30;99.90
21815;DHT22;11069;48.988;8.450;2022-12-18T04:12:23;-8.40;99.90
21815;DHT22;11069;48.988;8.450;2022-12-18T04:14:49;-8.40;99.90
21815;DHT22;11069;48.988;8.450;2022-12-18T04:17:14;-8.40;99.90
21815;DHT22;11069;48.988;8.450;2022-12-18T04:19:40;-8.30;99.90
21815;DHT22;11069;48.988;8.450;2022-12-18T04:22:05;-8.30;99.90
21815;DHT22;11069;48.988;8.450;2022-12-18T04:24:31;-8.20;99.90
21815;DHT22;11069;48.988;8.450;2022-12-18T04:26:56;-8.20;99.90
21815;DHT22;11069;48.988;8.450;2022-12-18T04:29:22;-8.20;99.90
21815;DHT22;11069;48.988;8.450;2022-12-18T04:31:47;-8.20;99.90
21815;DHT22;11069;48.988;8.450;2022-12-18T04:34:13;-8.10;99.90
21815;DHT22;11069;48.988;8.450;2022-12-18T04:36:38;-8.10;99.90
21815;DHT22;11069;48.988;8.450;2022-12-18T04:39:04;-8.00;99.90
21815;DHT22;11069;48.988;8.450;2022-12-18T04:41:30;-7.90;99.90
21815;DHT22;11069;48.988;8.450;2022-12-18T04:43:55;-7.90;99.90
21815;DHT22;11069;48.988;8.450;2022-12-18T04:46:21;-7.80;99.90
21815;DHT22;11069;48.988;8.450;2022-12-18T04:48:46;-7.70;99.90
21815;DHT22;11069;48.988;8.450;2022-12-18T04:51:12;-7.60;99.90
21815;DHT22;11069;48.988;8.450;2022-12-18T04:53:38;-7.50;99.90
21815;DHT22;11069;48.988;8.450;2022-12-18T04:56:09;-7.50;99.90
21815;DHT22;11069;48.988;8.450;2022-12-18T04:58:36;-7.50;99.90
21815;DHT22;11069;48.988;8.450;2022-12-18T05:01:02;-7.50;99.90
21815;DHT22;11069;48.988;8.450;2022-12-18T05:03:28;-7.50;99.90
21815;DHT22;11069;48.988;8.450;2022-12-18T05:05:54;-7.60;99.90
21815;DHT22;11069;48.988;8.450;2022-12-18T05:08:20;-7.60;99.90
21815;DHT22;11069;48.988;8.450;2022-12-18T05:10:45;-7.60;99.90
21815;DHT22;11069;48.988;8.450;2022-12-18T05:13:11;-7.60;99.90
21815;DHT22;11069;48.988;8.450;2022-12-18T05:15:37;-7.50;99.90
21815;DHT22;11069;48.988;8.450;2022-12-18T05:18:03;-7.50;99.90
21815;DHT22;11069;48.988;8.450;2022-12-18T05:20:29;-7.50;99.90
21815;DHT22;11069;48.988;8.450;2022-12-18T05:22:55;-7.50;99.90
21815;DHT22;11069;48.988;8.450;2022-12-18T05:25:22;-7.40;99.90
21815;DHT22;11069;48.988;8.450;2022-12-18T05:27:48;-7.40;99.90
21815;DHT22;11069;48.988;8.450;2022-12-18T05:30:14;-7.30;99.90
21815;DHT22;11069;48.988;8.450;2022-12-18T05:32:41;-7.30;99.90
21815;DHT22;11069;48.988;8.450;2022-12-18T05:35:08;-7.30;99.90
21815;DHT22;11069;48.988;8.450;2022-12-18T05:37:34;-7.30;99.90
21815;DHT22;11069;48.988;8.450;2022-12-18T05:39:59;-7.20;99.90
21815;DHT22;11069;48.988;8.450;2022-12-18T05:42:25;-7.30;99.90
21815;DHT22;11069;48.988;8.450;2022-12-18T05:44:50;-7.30;99.90
21815;DHT22;11069;48.988;8.450;2022-12-18T05:47:16;-7.20;99.90
21815;DHT22;11069;48.988;8.450;2022-12-18T05:49:42;-7.30;99.90
21815;DHT22;11069;48.988;8.450;2022-12-18T05:52:07;-7.40;99.90
21815;DHT22;11069;48.988;8.450;2022-12-18T05:54:33;-7.30;99.90
21815;DHT22;11069;48.988;8.450;2022-12-18T05:56:58;-7.30;99.90
21815;DHT22;11069;48.988;8.450;2022-12-18T05:59:24;-7.40;99.90
21815;DHT22;11069;48.988;8.450;2022-12-18T06:01:50;-7.30;99.90
21815;DHT22;11069;48.988;8.450;2022-12-18T06:04:15;-7.30;99.90
21815;DHT22;11069;48.988;8.450;2022-12-18T06:06:41;-7.30;99.90
21815;DHT22;11069;48.988;8.450;2022-12-18T06:09:06;-7.30;99.90
21815;DHT22;11069;48.988;8.450;2022-12-18T06:11:36;-7.30;99.90
21815;DHT22;11069;48.988;8.450;2022-12-18T06:14:03;-7.30;99.90
21815;DHT22;11069;48.988;8.450;2022-12-18T06:16:29;-7.20;99.90
21815;DHT22;11069;48.988;8.450;2022-12-18T06:18:59;-7.30;99.90
21815;DHT22;11069;48.988;8.450;2022-12-18T06:21:24;-7.20;99.90
21815;DHT22;11069;48.988;8.450;2022-12-18T06:23:50;-7.10;99.90
21815;DHT22;11069;48.988;8.450;2022-12-18T06:26:16;-7.00;99.90
21815;DHT22;11069;48.988;8.450;2022-12-18T06:28:41;-7.00;99.90
21815;DHT22;11069;48.988;8.450;2022-12-18T06:31:08;-6.90;99.90
21815;DHT22;11069;48.988;8.450;2022-12-18T06:33:34;-6.80;99.90
21815;DHT22;11069;48.988;8.450;2022-12-18T06:36:07;-6.80;99.90
21815;DHT22;11069;48.988;8.450;2022-12-18T06:38:35;-6.70;99.90
21815;DHT22;11069;48.988;8.450;2022-12-18T06:41:10;-6.70;99.90
21815;DHT22;11069;48.988;8.450;2022-12-18T06:43:36;-6.70;99.90
21815;DHT22;11069;48.988;8.450;2022-12-18T06:46:02;-6.70;99.90
21815;DHT22;11069;48.988;8.450;2022-12-18T06:48:28;-6.70;99.90
21815;DHT22;11069;48.988;8.450;2022-12-18T06:50:54;-6.70;99.90
21815;DHT22;11069;48.988;8.450;2022-12-18T06:53:19;-6.50;99.90
21815;DHT22;11069;48.988;8.450;2022-12-18T06:55:45;-6.40;99.90
21815;DHT22;11069;48.988;8.450;2022-12-18T06:58:10;-6.40;99.90
21815;DHT22;11069;48.988;8.450;2022-12-18T07:00:36;-6.40;99.90
21815;DHT22;11069;48.988;8.450;2022-12-18T07:03:01;-6.40;99.90
21815;DHT22;11069;48.988;8.450;2022-12-18T07:05:27;-6.30;99.90
21815;DHT22;11069;48.988;8.450;2022-12-18T07:07:53;-6.30;99.90
21815;DHT22;11069;48.988;8.450;2022-12-18T07:10:18;-6.30;99.90
21815;DHT22;11069;48.988;8.450;2022-12-18T07:12:44;-6.30;99.90
21815;DHT22;11069;48.988;8.450;2022-12-18T07:15:09;-6.30;99.90
21815;DHT22;11069;48.988;8.450;2022-12-18T07:17:35;-6.40;99.90
21815;DHT22;11069;48.988;8.450;2022-12-18T07:20:01;-6.50;99.90
21815;DHT22;11069;48.988;8.450;2022-12-18T07:22:27;-6.40;99.90
21815;DHT22;11069;48.988;8.450;2022-12-18T07:24:52;-6.40;99.90
21815;DHT22;11069;48.988;8.450;2022-12-18T07:27:18;-6.40;99.90
21815;DHT22;11069;48.988;8.450;2022-12-18T07:29:43;-6.50;99.90
21815;DHT22;11069;48.988;8.450;2022-12-18T07:32:09;-6.60;99.90
21815;DHT22;11069;48.988;8.450;2022-12-18T07:34:35;-6.60;99.90
21815;DHT22;11069;48.988;8.450;2022-12-18T07:37:00;-6.50;99.90
21815;DHT22;11069;48.988;8.450;2022-12-18T07:39:26;-6.30;99.90
21815;DHT22;11069;48.988;8.450;2022-12-18T07:41:52;-6.20;99.90
21815;DHT22;11069;48.988;8.450;2022-12-18T07:44:36;-6.20;99.90
21815;DHT22;11069;48.988;8.450;2022-12-18T07:47:01;-6.20;99.90
21815;DHT22;11069;48.988;8.450;2022-12-18T07:49:28;-6.10;99.90
21815;DHT22;11069;48.988;8.450;2022-12-18T07:51:55;-6.10;99.90
21815;DHT22;11069;48.988;8.450;2022-12-18T07:54:21;-6.00;99.90
21815;DHT22;11069;48.988;8.450;2022-12-18T07:56:47;-6.10;99.90
21815;DHT22;11069;48.988;8.450;2022-12-18T07:59:13;-6.10;99.90
21815;DHT22;11069;48.988;8.450;2022-12-18T08:01:38;-6.20;99.90
21815;DHT22;11069;48.988;8.450;2022-12-18T08:04:04;-6.20;99.90
21815;DHT22;11069;48.988;8.450;2022-12-18T08:06:30;-6.20;99.90
21815;DHT22;11069;48.988;8.450;2022-12-18T08:08:56;-6.20;99.90
21815;DHT22;11069;48.988;8.450;2022-12-18T08:11:23;-6.30;99.90
21815;DHT22;11069;48.988;8.450;2022-12-18T08:13:49;-6.40;99.90
21815;DHT22;11069;48.988;8.450;2022-12-18T08:16:14;-6.40;99.90
21815;DHT22;11069;48.988;8.450;2022-12-18T08:18:40;-6.40;99.90
21815;DHT22;11069;48.988;8.450;2022-12-18T08:21:18;-6.30;99.90
21815;DHT22;11069;48.988;8.450;2022-12-18T08:23:44;-6.30;99.90
21815;DHT22;11069;48.988;8.450;2022-12-18T08:26:13;-6.30;99.90
21815;DHT22;11069;48.988;8.450;2022-12-18T08:28:39;-6.30;99.90
21815;DHT22;11069;48.988;8.450;2022-12-18T08:31:05;-6.30;99.90
21815;DHT22;11069;48.988;8.450;2022-12-18T08:33:31;-6.30;99.90
21815;DHT22;11069;48.988;8.450;2022-12-18T08:35:59;-6.40;99.90
21815;DHT22;11069;48.988;8.450;2022-12-18T08:38:25;-6.40;99.90
21815;DHT22;11069;48.988;8.450;2022-12-18T08:41:01;-6.40;99.90
21815;DHT22;11069;48.988;8.450;2022-12-18T08:43:28;-6.30;99.90
21815;DHT22;11069;48.988;8.450;2022-12-18T08:46:12;-6.20;99.90
21815;DHT22;11069;48.988;8.450;2022-12-18T08:48:37;-6.30;99.90
21815;DHT22;11069;48.988;8.450;2022-12-18T08:51:03;-6.30;99.90
21815;DHT22;11069;48.988;8.450;2022-12-18T08:53:29;-6.20;99.90
21815;DHT22;11069;48.988;8.450;2022-12-18T08:55:56;-6.10;99.90
21815;DHT22;11069;48.988;8.450;2022-12-18T08:58:22;-6.10;99.90
21815;DHT22;11069;48.988;8.450;2022-12-18T09:00:48;-6.10;99.90
21815;DHT22;11069;48.988;8.450;2022-12-18T09:03:17;-6.00;99.90
21815;DHT22;11069;48.988;8.450;2022-12-18T09:05:45;-6.10;99.90
21815;DHT22;11069;48.988;8.450;2022-12-18T09:08:11;-6.10;99.90
21815;DHT22;11069;48.988;8.450;2022-12-18T09:10:47;-6.10;99.90
21815;DHT22;11069;48.988;8.450;2022-12-18T09:13:14;-6.00;99.90
21815;DHT22;11069;48.988;8.450;2022-12-18T09:15:49;-5.90;99.90
21815;DHT22;11069;48.988;8.450;2022-12-18T09:18:17;-5.90;99.90
21815;DHT22;11069;48.988;8.450;2022-12-18T09:20:43;-5.80;99.90
21815;DHT22;11069;48.988;8.450;2022-12-18T09:23:09;-5.60;99.90
21815;DHT22;11069;48.988;8.450;2022-12-18T09:25:36;-5.60;99.90
21815;DHT22;11069;48.988;8.450;2022-12-18T09:28:16;-5.60;99.90
21815;DHT22;11069;48.988;8.450;2022-12-18T09:30:44;-5.70;99.90
21815;DHT22;11069;48.988;8.450;2022-12-18T09:33:10;-5.70;99.90
21815;DHT22;11069;48.988;8.450;2022-12-18T09:35:36;-5.70;99.90
21815;DHT22;11069;48.988;8.450;2022-12-18T09:38:02;-5.60;99.90
21815;DHT22;11069;48.988;8.450;2022-12-18T09:40:34;-5.50;99.90
21815;DHT22;11069;48.988;8.450;2022-12-18T09:43:04;-5.80;99.90
21815;DHT22;11069;48.988;8.450;2022-12-18T09:45:53;-5.70;99.90
21815;DHT22;11069;48.988;8.450;2022-12-18T09:50:51;-5.30;99.90
21815;DHT22;11069;48.988;8.450;2022-12-18T09:53:26;-5.40;99.90
21815;DHT22;11069;48.988;8.450;2022-12-18T09:55:53;-5.40;99.90
21815;DHT22;11069;48.988;8.450;2022-12-18T09:58:33;-5.30;99.90
21815;DHT22;11069;48.988;8.450;2022-12-18T10:01:00;-5.10;99.90
21815;DHT22;11069;48.988;8.450;2022-12-18T10:03:25;-5.30;99.90
21815;DHT22;11069;48.988;8.450;2022-12-18T10:06:06;-5.40;99.90
21815;DHT22;11069;48.988;8.450;2022-12-18T10:17:02;-5.10;99.90
21815;DHT22;11069;48.988;8.450;2022-12-18T10:22:48;-4.90;99.90
21815;DHT22;11069;48.988;8.450;2022-12-18T10:27:51;-4.80;99.90
21815;DHT22;11069;48.988;8.450;2022-12-18T10:30:21;-4.80;99.90
21815;DHT22;11069;48.988;8.450;2022-12-18T10:32:47;-4.70;99.90
21815;DHT22;11069;48.988;8.450;2022-12-18T10:35:22;-4.50;99.90
21815;DHT22;11069;48.988;8.450;2022-12-18T10:43:30;-4.50;99.90
21815;DHT22;11069;48.988;8.450;2022-12-18T10:48:57;-4.50;99.90
21815;DHT22;11069;48.988;8.450;2022-12-18T10:51:32;-4.40;99.90
21815;DHT22;11069;48.988;8.450;2022-12-18T10:54:04;-4.30;99.90
21815;DHT22;11069;48.988;8.450;2022-12-18T10:56:35;-4.30;99.90
21815;DHT22;11069;48.988;8.450;2022-12-18T10:59:10;-4.40;99.90
21815;DHT22;11069;48.988;8.450;2022-12-18T11:01:55;-4.30;99.90
21815;DHT22;11069;48.988;8.450;2022-12-18T11:04:24;-4.20;99.90
21815;DHT22;11069;48.988;8.450;2022-12-18T11:07:00;-3.80;99.90
21815;DHT22;11069;48.988;8.450;2022-12-18T11:09:31;-3.50;99.90
21815;DHT22;11069;48.988;8.450;2022-12-18T11:12:02;-3.40;99.90
21815;DHT22;11069;48.988;8.450;2022-12-18T11:17:31;-3.20;99.90
21815;DHT22;11069;48.988;8.450;2022-12-18T11:20:30;-3.40;99.90
21815;DHT22;11069;48.988;8.450;2022-12-18T11:23:05;-3.20;99.90
21815;DHT22;11069;48.988;8.450;2022-12-18T11:25:32;-3.30;99.90
21815;DHT22;11069;48.988;8.450;2022-12-18T11:28:25;-3.30;99.90
21815;DHT22;11069;48.988;8.450;2022-12-18T11:34:19;-3.00;99.90
21815;DHT22;11069;48.988;8.450;2022-12-18T11:36:46;-2.70;99.90
21815;DHT22;11069;48.988;8.450;2022-12-18T11:42:08;-2.30;99.90
21815;DHT22;11069;48.988;8.450;2022-12-18T11:45:01;-2.10;99.90
21815;DHT22;11069;48.988;8.450;2022-12-18T11:50:00;-1.90;99.90
21815;DHT22;11069;48.988;8.450;2022-12-18T11:52:36;-2.00;99.90
21815;DHT22;11069;48.988;8.450;2022-12-18T12:06:53;-2.30;99.90
21815;DHT22;11069;48.988;8.450;2022-12-18T12:09:54;-2.40;99.90
21815;DHT22;11069;48.988;8.450;2022-12-18T12:15:12;-2.10;99.90
21815;DHT22;11069;48.988;8.450;2022-12-18T12:25:55;-1.60;99.90
21815;DHT22;11069;48.988;8.450;2022-12-18T12:36:42;-1.10;99.90
21815;DHT22;11069;48.988;8.450;2022-12-18T12:39:15;-1.00;99.90
21815;DHT22;11069;48.988;8.450;2022-12-18T12:41:45;-0.80;99.90
21815;DHT22;11069;48.988;8.450;2022-12-18T12:44:39;-1.10;99.90
21815;DHT22;11069;48.988;8.450;2022-12-18T12:47:16;-1.30;99.90
21815;DHT22;11069;48.988;8.450;2022-12-18T12:49:42;-1.40;99.90
21815;DHT22;11069;48.988;8.450;2022-12-18T12:52:16;-1.30;99.90
21815;DHT22;11069;48.988;8.450;2022-12-18T12:54:43;-0.80;99.90
21815;DHT22;11069;48.988;8.450;2022-12-18T12:57:17;-0.50;99.90
21815;DHT22;11069;48.988;8.450;2022-12-18T13:00:01;-0.50;99.90
21815;DHT22;11069;48.988;8.450;2022-12-18T13:02:42;-0.40;99.90
21815;DHT22;11069;48.988;8.450;2022-12-18T13:08:29;-0.20;99.90
21815;DHT22;11069;48.988;8.450;2022-12-18T13:10:59;-0.30;99.90
21815;DHT22;11069;48.988;8.450;2022-12-18T13:13:55;-0.50;99.90
21815;DHT22;11069;48.988;8.450;2022-12-18T13:16:25;-0.60;99.90
21815;DHT22;11069;48.988;8.450;2022-12-18T13:18:55;-1.30;99.90
21815;DHT22;11069;48.988;8.450;2022-12-18T13:21:34;-1.60;99.90
21815;DHT22;11069;48.988;8.450;2022-12-18T13:24:26;-1.90;99.90
21815;DHT22;11069;48.988;8.450;2022-12-18T13:26:52;-2.10;99.90
21815;DHT22;11069;48.988;8.450;2022-12-18T13:29:44;-2.00;99.90
21815;DHT22;11069;48.988;8.450;2022-12-18T13:32:24;-1.70;99.90
21815;DHT22;11069;48.988;8.450;2022-12-18T13:37:50;-1.50;99.90
21815;DHT22;11069;48.988;8.450;2022-12-18T13:45:50;-1.10;99.90
21815;DHT22;11069;48.988;8.450;2022-12-18T13:48:25;-1.00;99.90
21815;DHT22;11069;48.988;8.450;2022-12-18T13:51:05;-1.00;99.90
21815;DHT22;11069;48.988;8.450;2022-12-18T13:53:57;-1.20;99.90
21815;DHT22;11069;48.988;8.450;2022-12-18T13:56:29;-1.40;99.90
21815;DHT22;11069;48.988;8.450;2022-12-18T14:01:43;-2.00;99.90
21815;DHT22;11069;48.988;8.450;2022-12-18T14:06:45;-2.40;99.90
21815;DHT22;11069;48.988;8.450;2022-12-18T14:09:15;-2.50;99.90
21815;DHT22;11069;48.988;8.450;2022-12-18T14:11:48;-2.50;99.90
21815;DHT22;11069;48.988;8.450;2022-12-18T14:14:16;-2.50;99.90
21815;DHT22;11069;48.988;8.450;2022-12-18T14:16:43;-2.50;99.90
21815;DHT22;11069;48.988;8.450;2022-12-18T14:19:14;-2.50;99.90
21815;DHT22;11069;48.988;8.450;2022-12-18T14:21:48;-2.40;99.90
21815;DHT22;11069;48.988;8.450;2022-12-18T14:24:19;-2.60;99.90
21815;DHT22;11069;48.988;8.450;2022-12-18T14:26:47;-2.70;99.90
21815;DHT22;11069;48.988;8.450;2022-12-18T14:29:30;-2.70;99.90
21815;DHT22;11069;48.988;8.450;2022-12-18T14:32:06;-2.80;99.90
21815;DHT22;11069;48.988;8.450;2022-12-18T14:34:32;-2.80;99.90
21815;DHT22;11069;48.988;8.450;2022-12-18T14:36:57;-2.80;99.90
21815;DHT22;11069;48.988;8.450;2022-12-18T14:39:23;-2.90;99.90
21815;DHT22;11069;48.988;8.450;2022-12-18T14:41:51;-2.90;99.90
21815;DHT22;11069;48.988;8.450;2022-12-18T14:44:16;-2.90;99.90
21815;DHT22;11069;48.988;8.450;2022-12-18T14:46:47;-2.90;99.90
21815;DHT22;11069;48.988;8.450;2022-12-18T14:49:18;-3.00;99.90
21815;DHT22;11069;48.988;8.450;2022-12-18T14:51:54;-3.00;99.90
21815;DHT22;11069;48.988;8.450;2022-12-18T14:54:21;-3.00;99.90
21815;DHT22;11069;48.988;8.450;2022-12-18T14:56:49;-3.00;99.90
21815;DHT22;11069;48.988;8.450;2022-12-18T14:59:24;-3.00;99.90
21815;DHT22;11069;48.988;8.450;2022-12-18T15:04:32;-3.10;99.90
21815;DHT22;11069;48.988;8.450;2022-12-18T15:07:18;-3.20;99.90
21815;DHT22;11069;48.988;8.450;2022-12-18T15:12:41;-3.30;99.90
21815;DHT22;11069;48.988;8.450;2022-12-18T15:20:53;-3.50;99.90
21815;DHT22;11069;48.988;8.450;2022-12-18T15:25:47;-3.60;99.90
21815;DHT22;11069;48.988;8.450;2022-12-18T15:28:29;-3.70;99.90
21815;DHT22;11069;48.988;8.450;2022-12-18T15:33:33;-3.80;99.90
21815;DHT22;11069;48.988;8.450;2022-12-18T15:36:11;-3.80;99.90
21815;DHT22;11069;48.988;8.450;2022-12-18T15:38:36;-3.90;99.90
21815;DHT22;11069;48.988;8.450;2022-12-18T15:41:02;-3.90;99.90
21815;DHT22;11069;48.988;8.450;2022-12-18T15:43:51;-3.90;99.90
21815;DHT22;11069;48.988;8.450;2022-12-18T15:46:19;-4.00;99.90
21815;DHT22;11069;48.988;8.450;2022-12-18T15:48:56;-4.00;99.90
21815;DHT22;11069;48.988;8.450;2022-12-18T15:53:59;-4.10;99.90
21815;DHT22;11069;48.988;8.450;2022-12-18T15:56:26;-4.20;99.90
21815;DHT22;11069;48.988;8.450;2022-12-18T15:59:15;-4.30;99.90
21815;DHT22;11069;48.988;8.450;2022-12-18T16:01:44;-4.30;99.90
21815;DHT22;11069;48.988;8.450;2022-12-18T16:04:15;-4.30;99.90
21815;DHT22;11069;48.988;8.450;2022-12-18T16:06:41;-4.20;99.90
21815;DHT22;11069;48.988;8.450;2022-12-18T16:09:07;-4.30;99.90
21815;DHT22;11069;48.988;8.450;2022-12-18T16:11:35;-4.20;99.90
21815;DHT22;11069;48.988;8.450;2022-12-18T16:16:46;-4.20;99.90
21815;DHT22;11069;48.988;8.450;2022-12-18T16:19:12;-4.20;99.90
21815;DHT22;11069;48.988;8.450;2022-12-18T16:21:38;-4.20;99.90
21815;DHT22;11069;48.988;8.450;2022-12-18T16:24:04;-4.20;99.90
21815;DHT22;11069;48.988;8.450;2022-12-18T16:26:30;-4.20;99.90
21815;DHT22;11069;48.988;8.450;2022-12-18T16:28:56;-4.20;99.90
21815;DHT22;11069;48.988;8.450;2022-12-18T16:31:21;-4.20;99.90
21815;DHT22;11069;48.988;8.450;2022-12-18T16:33:47;-4.10;99.90
21815;DHT22;11069;48.988;8.450;2022-12-18T16:36:12;-4.10;99.90
21815;DHT22;11069;48.988;8.450;2022-12-18T16:38:38;-4.10;99.90
21815;DHT22;11069;48.988;8.450;2022-12-18T16:41:17;-4.10;99.90
21815;DHT22;11069;48.988;8.450;2022-12-18T16:44:02;-4.00;99.90
21815;DHT22;11069;48.988;8.450;2022-12-18T16:46:28;-4.00;99.90
21815;DHT22;11069;48.988;8.450;2022-12-18T16:48:54;-4.00;99.90
21815;DHT22;11069;48.988;8.450;2022-12-18T16:51:19;-4.00;99.90
21815;DHT22;11069;48.988;8.450;2022-12-18T16:53:45;-4.00;99.90
21815;DHT22;11069;48.988;8.450;2022-12-18T16:56:10;-4.00;99.90
21815;DHT22;11069;48.988;8.450;2022-12-18T16:58:36;-3.90;99.90
21815;DHT22;11069;48.988;8.450;2022-12-18T17:01:09;-3.90;99.90
21815;DHT22;11069;48.988;8.450;2022-12-18T17:03:35;-3.90;99.90
21815;DHT22;11069;48.988;8.450;2022-12-18T17:06:04;-4.00;99.90
21815;DHT22;11069;48.988;8.450;2022-12-18T17:08:30;-3.90;99.90
21815;DHT22;11069;48.988;8.450;2022-12-18T17:10:56;-4.10;99.90
21815;DHT22;11069;48.988;8.450;2022-12-18T17:13:25;-4.10;99.90
21815;DHT22;11069;48.988;8.450;2022-12-18T17:15:50;-4.10;99.90
21815;DHT22;11069;48.988;8.450;2022-12-18T17:18:16;-4.20;99.90
21815;DHT22;11069;48.988;8.450;2022-12-18T17:20:42;-4.20;99.90
21815;DHT22;11069;48.988;8.450;2022-12-18T17:23:07;-4.20;99.90
21815;DHT22;11069;48.988;8.450;2022-12-18T17:25:33;-4.20;99.90
21815;DHT22;11069;48.988;8.450;2022-12-18T17:27:58;-4.20;99.90
21815;DHT22;11069;48.988;8.450;2022-12-18T17:30:24;-4.20;99.90
21815;DHT22;11069;48.988;8.450;2022-12-18T17:32:49;-4.30;99.90
21815;DHT22;11069;48.988;8.450;2022-12-18T17:35:15;-4.30;99.90
21815;DHT22;11069;48.988;8.450;2022-12-18T17:37:40;-4.30;99.90
21815;DHT22;11069;48.988;8.450;2022-12-18T17:40:06;-4.40;99.90
21815;DHT22;11069;48.988;8.450;2022-12-18T17:42:32;-4.40;99.90
21815;DHT22;11069;48.988;8.450;2022-12-18T17:44:58;-4.40;99.90
21815;DHT22;11069;48.988;8.450;2022-12-18T17:47:23;-4.40;99.90
21815;DHT22;11069;48.988;8.450;2022-12-18T17:49:49;-4.40;99.90
21815;DHT22;11069;48.988;8.450;2022-12-18T17:52:15;-4.30;99.90
21815;DHT22;11069;48.988;8.450;2022-12-18T17:54:40;-4.30;99.90
21815;DHT22;11069;48.988;8.450;2022-12-18T17:57:08;-4.20;99.90
21815;DHT22;11069;48.988;8.450;2022-12-18T17:59:34;-4.00;99.90
21815;DHT22;11069;48.988;8.450;2022-12-18T18:02:00;-3.90;99.90
21815;DHT22;11069;48.988;8.450;2022-12-18T18:04:25;-3.90;99.90